Time;durP1;ratioP1;P1;durP2;ratioP2;P2;SDS_P1;SDS_P2;PMS_P1;PMS_P2;Temp;Humidity;BMP_temperature;BMP_pressure;BME280_temperature;BME280_humidity;BME280_pressure;Samples;Min_cycle;Max_cycle;Signal;HPM_P1;HPM_P2
2024/01/12 00:02:26;;;;;;;102.37;39.57;;;;;;;-1.98;100.00;103367.56;10406908;28;20042;-74
2024/01/12 00:07:27;;;;;;;95.67;36.67;;;;;;;-1.93;100.00;103375.31;10421621;28;20041;-75
2024/01/12 00:12:27;;;;;;;94.17;36.87;;;;;;;-1.80;100.00;103375.28;10415176;28;20045;-74
2024/01/12 00:17:27;;;;;;;101.37;38.23;;;;;;;-1.81;100.00;103347.44;10429316;28;20042;-75
2024/01/12 00:22:28;;;;;;;98.57;35.03;;;;;;;-1.64;100.00;103365.09;10411758;28;20041;-74
2024/01/12 00:27:28;;;;;;;95.67;35.37;;;;;;;-1.60;100.00;103358.50;10403298;28;20420;-74
2024/01/12 00:32:29;;;;;;;87.50;33.30;;;;;;;-1.52;100.00;103350.69;10415346;28;20041;-74
2024/01/12 00:37:29;;;;;;;78.37;32.93;;;;;;;-1.48;100.00;103344.06;10418462;28;20053;-74
2024/01/12 00:42:30;;;;;;;84.73;32.17;;;;;;;-1.39;100.00;103345.22;10412473;28;20095;-74
2024/01/12 00:47:30;;;;;;;87.53;32.47;;;;;;;-1.43;100.00;103325.69;10410806;28;20425;-74
2024/01/12 00:52:31;;;;;;;77.43;29.60;;;;;;;-1.28;100.00;103333.59;10419060;28;20049;-74
2024/01/12 00:57:31;;;;;;;77.10;32.00;;;;;;;-1.24;100.00;103329.69;10409965;28;20029;-74
2024/01/12 01:02:32;;;;;;;69.97;30.63;;;;;;;-1.52;100.00;103266.94;10393409;28;20050;-74
2024/01/12 01:07:32;;;;;;;86.30;30.57;;;;;;;-1.03;100.00;103343.44;10414280;28;20037;-74
2024/01/12 01:12:33;;;;;;;60.67;29.93;;;;;;;-0.96;100.00;103354.63;10415631;28;20043;-73
2024/01/12 01:17:33;;;;;;;68.93;28.50;;;;;;;-0.92;100.00;103339.91;10410249;28;20033;-73
2024/01/12 01:22:34;;;;;;;55.53;30.03;;;;;;;-0.90;100.00;103316.31;10384481;28;20042;-74
2024/01/12 01:27:34;;;;;;;67.17;29.33;;;;;;;-0.58;100.00;103331.88;10400928;28;20090;-74
2024/01/12 01:32:35;;;;;;;57.67;27.33;;;;;;;-0.46;100.00;103330.91;10415507;28;20041;-74
2024/01/12 01:37:36;;;;;;;76.80;29.77;;;;;;;-0.41;100.00;103331.41;10405876;28;20042;-75
2024/01/12 01:42:36;;;;;;;52.20;27.37;;;;;;;-0.45;100.00;103321.81;10398407;28;20093;-75
2024/01/12 01:47:37;;;;;;;63.80;29.40;;;;;;;-0.19;100.00;103340.53;10397707;28;20034;-75
2024/01/12 01:52:37;;;;;;;56.70;28.83;;;;;;;-0.04;100.00;103337.44;10415377;28;20041;-75
2024/01/12 01:57:39;;;;;;;52.80;26.47;;;;;;;-0.09;100.00;103304.44;10416397;28;20422;-75
2024/01/12 02:02:39;;;;;;;43.67;24.27;;;;;;;0.05;100.00;103329.56;10378430;28;20546;-76
2024/01/12 02:07:41;;;;;;;47.47;22.77;;;;;;;0.13;100.00;103332.53;10382428;28;20041;-76
2024/01/12 02:12:42;;;;;;;46.83;22.97;;;;;;;-0.16;100.00;103267.19;10401574;28;20045;-75
2024/01/12 02:17:43;;;;;;;40.87;21.80;;;;;;;0.11;100.00;103297.41;10415321;28;20044;-75
2024/01/12 02:22:43;;;;;;;46.53;21.73;;;;;;;-0.42;100.00;103207.88;10415763;28;21016;-76
2024/01/12 02:27:44;;;;;;;47.40;22.77;;;;;;;0.29;100.00;103318.56;10417509;28;20049;-76
2024/01/12 02:32:44;;;;;;;40.70;19.95;;;;;;;0.30;100.00;103314.88;10373204;28;20060;-76
2024/01/12 02:37:44;;;;;;;37.40;19.33;;;;;;;0.28;100.00;103290.59;10414395;28;20080;-76
2024/01/12 02:42:46;;;;;;;38.37;18.37;;;;;;;0.30;100.00;103293.19;10415574;28;20040;-76
2024/01/12 02:47:47;;;;;;;37.33;17.87;;;;;;;0.20;100.00;103269.56;10416151;28;20337;-76
2024/01/12 02:52:47;;;;;;;33.27;19.50;;;;;;;0.24;100.00;103274.75;10416518;28;20052;-76
2024/01/12 02:57:48;;;;;;;34.88;17.65;;;;;;;0.30;100.00;103272.38;10431188;28;20616;-76
2024/01/12 03:02:48;;;;;;;37.03;17.93;;;;;;;0.18;100.00;103257.13;10415732;28;20378;-76
2024/01/12 03:07:49;;;;;;;38.23;18.43;;;;;;;0.24;100.00;103253.91;10409457;28;20060;-75
2024/01/12 03:12:49;;;;;;;34.70;16.48;;;;;;;0.22;100.00;103261.31;10412387;28;20496;-75
2024/01/12 03:17:50;;;;;;;45.17;18.13;;;;;;;0.12;100.00;103253.06;10406632;28;20048;-75
2024/01/12 03:22:51;;;;;;;34.80;17.03;;;;;;;-0.10;100.00;103245.03;10396301;28;20044;-74
2024/01/12 03:27:51;;;;;;;35.90;16.13;;;;;;;-0.31;100.00;103215.13;10399580;28;20057;-75
2024/01/12 03:32:51;;;;;;;37.33;16.77;;;;;;;-0.25;100.00;103226.34;10414769;28;20060;-75
2024/01/12 03:37:52;;;;;;;35.38;16.30;;;;;;;-0.35;100.00;103219.94;10426991;28;20040;-75
2024/01/12 03:42:52;;;;;;;33.53;16.00;;;;;;;-0.25;100.00;103231.75;10426045;28;20049;-74
2024/01/12 03:47:53;;;;;;;39.63;17.43;;;;;;;-0.29;100.00;103230.28;10412889;28;20563;-75
2024/01/12 03:52:53;;;;;;;31.85;16.13;;;;;;;-0.15;100.00;103236.41;10394552;28;20099;-75
2024/01/12 03:57:54;;;;;;;47.43;17.57;;;;;;;-0.02;100.00;103238.00;10429578;28;20451;-74
2024/01/12 04:02:55;;;;;;;38.17;17.90;;;;;;;0.15;100.00;103216.78;10412860;28;20037;-75
2024/01/12 04:07:55;;;;;;;42.80;16.73;;;;;;;0.32;100.00;103223.47;10392195;28;20076;-74
2024/01/12 04:12:56;;;;;;;32.50;17.67;;;;;;;0.48;100.00;103223.91;10413423;28;20049;-74
2024/01/12 04:17:56;;;;;;;44.87;17.17;;;;;;;0.52;100.00;103214.53;10414935;28;20042;-73
2024/01/12 04:22:57;;;;;;;40.47;18.63;;;;;;;0.49;100.00;103203.94;10401814;28;20072;-74
2024/01/12 04:27:57;;;;;;;35.50;17.43;;;;;;;0.65;100.00;103216.19;10393343;28;20406;-75
2024/01/12 04:32:57;;;;;;;37.03;16.48;;;;;;;0.62;100.00;103202.88;10408641;28;20042;-74
2024/01/12 04:37:59;;;;;;;37.13;15.45;;;;;;;0.60;100.00;103206.59;10406731;28;20041;-73
2024/01/12 04:42:59;;;;;;;38.07;16.17;;;;;;;0.66;100.00;103226.03;10417192;28;20390;-73
2024/01/12 04:47:59;;;;;;;32.27;15.50;;;;;;;0.57;100.00;103216.84;10421101;28;21873;-73
2024/01/12 04:53:00;;;;;;;33.80;15.83;;;;;;;0.42;100.00;103194.63;10418885;28;20045;-73
2024/01/12 04:58:02;;;;;;;43.17;17.87;;;;;;;0.59;100.00;103215.72;10420415;28;20044;-73
2024/01/12 05:03:02;;;;;;;31.35;15.60;;;;;;;0.57;100.00;103212.28;10417838;28;20513;-74
2024/01/12 05:08:03;;;;;;;39.43;17.80;;;;;;;0.54;100.00;103207.13;10418821;28;20051;-74
2024/01/12 05:13:04;;;;;;;45.80;19.17;;;;;;;0.50;100.00;103202.97;10425308;28;20096;-73
2024/01/12 05:18:04;;;;;;;45.67;17.17;;;;;;;0.45;100.00;103186.22;10392294;28;20038;-73
2024/01/12 05:23:05;;;;;;;44.23;16.77;;;;;;;0.49;100.00;103176.81;10400191;28;20071;-73
2024/01/12 05:28:05;;;;;;;39.53;16.15;;;;;;;0.55;100.00;103164.59;10384245;28;20081;-74
2024/01/12 05:33:06;;;;;;;37.40;15.43;;;;;;;0.52;100.00;103165.75;10400439;28;20149;-73
2024/01/12 05:38:06;;;;;;;33.93;16.80;;;;;;;-0.29;100.00;103038.09;10380392;28;20053;-73
2024/01/12 05:43:07;;;;;;;40.90;16.77;;;;;;;0.32;100.00;103150.31;10415520;28;20034;-73
2024/01/12 05:48:07;;;;;;;39.83;17.03;;;;;;;0.32;100.00;103163.88;10378758;28;20477;-73
2024/01/12 05:53:08;;;;;;;42.33;16.37;;;;;;;0.29;100.00;103154.16;10399139;28;20104;-73
2024/01/12 05:58:08;;;;;;;42.93;16.63;;;;;;;0.20;100.00;103134.09;10394153;28;20029;-74
2024/01/12 06:03:09;;;;;;;45.77;17.53;;;;;;;0.31;100.00;103148.59;10397721;28;20029;-73
2024/01/12 06:08:09;;;;;;;44.80;17.07;;;;;;;0.23;100.00;103148.38;10413723;28;20068;-71
2024/01/12 06:13:10;;;;;;;50.27;17.53;;;;;;;0.21;100.00;103153.94;10381083;28;20061;-73
2024/01/12 06:18:10;;;;;;;47.23;17.30;;;;;;;0.25;100.00;103151.81;10413755;28;20048;-73
2024/01/12 06:23:11;;;;;;;43.80;17.80;;;;;;;0.20;100.00;103139.53;10397583;28;20053;-73
2024/01/12 06:28:13;;;;;;;44.70;17.73;;;;;;;0.24;100.00;103144.69;10415945;28;20508;-73
2024/01/12 06:33:16;;;;;;;48.90;18.63;;;;;;;0.17;100.00;103136.22;10414633;28;20513;-73
2024/01/12 06:38:16;;;;;;;45.30;19.10;;;;;;;0.24;100.00;103150.13;10412620;28;20116;-73
2024/01/12 06:43:17;;;;;;;49.80;19.53;;;;;;;0.31;100.00;103162.13;10396856;28;20034;-72
2024/01/12 06:48:18;;;;;;;49.07;20.70;;;;;;;0.33;100.00;103165.56;10395347;28;20038;-73
2024/01/12 06:53:18;;;;;;;42.20;17.55;;;;;;;0.26;100.00;103148.13;10392911;28;20048;-73
2024/01/12 06:58:19;;;;;;;49.67;19.33;;;;;;;0.26;100.00;103132.72;10391817;28;20037;-73
2024/01/12 07:03:20;;;;;;;50.60;18.42;;;;;;;0.35;100.00;103136.50;10394942;28;20064;-74
2024/01/12 07:08:20;;;;;;;46.75;17.90;;;;;;;0.42;100.00;103151.25;10391490;28;20057;-73
2024/01/12 07:13:21;;;;;;;48.87;17.87;;;;;;;0.44;100.00;103160.13;10396932;28;20049;-73
2024/01/12 07:18:21;;;;;;;46.73;18.07;;;;;;;0.37;100.00;103145.34;10396227;28;20482;-73
2024/01/12 07:23:22;;;;;;;92.00;20.17;;;;;;;0.42;100.00;103159.38;10412852;28;20061;-73
2024/01/12 07:28:22;;;;;;;50.28;19.27;;;;;;;0.06;100.00;103120.88;10412553;28;20038;-72
2024/01/12 07:33:23;;;;;;;43.27;17.93;;;;;;;0.42;100.00;103143.13;10396142;28;20252;-73
2024/01/12 07:38:24;;;;;;;43.23;18.13;;;;;;;0.05;100.00;103086.66;10386834;28;20038;-73
2024/01/12 07:43:27;;;;;;;36.63;16.77;;;;;;;0.44;100.00;103146.56;10381462;28;20064;-73
2024/01/12 07:48:27;;;;;;;52.28;19.02;;;;;;;0.48;100.00;103148.03;10426714;28;20037;-74
2024/01/12 07:53:29;;;;;;;51.03;19.05;;;;;;;0.46;100.00;103133.75;10394931;28;20041;-73
2024/01/12 07:58:29;;;;;;;64.82;20.67;;;;;;;0.48;100.00;103139.88;10427623;28;20041;-73
2024/01/12 08:03:30;;;;;;;46.53;17.67;;;;;;;0.50;100.00;103146.03;10396183;28;20052;-73
2024/01/12 08:08:30;;;;;;;51.67;19.30;;;;;;;0.57;100.00;103157.22;10404053;28;20106;-72
2024/01/12 08:13:31;;;;;;;55.70;19.43;;;;;;;0.47;100.00;103157.13;10379894;28;20041;-73
2024/01/12 08:18:32;;;;;;;50.13;17.37;;;;;;;0.50;100.00;103156.88;10415371;28;20385;-73
2024/01/12 08:23:33;;;;;;;43.90;18.73;;;;;;;0.52;100.00;103144.06;10397620;28;20034;-73
2024/01/12 08:28:33;;;;;;;41.72;17.83;;;;;;;0.58;100.00;103150.81;10386229;28;20588;-73
2024/01/12 08:33:34;;;;;;;50.67;19.13;;;;;;;0.58;100.00;103143.53;10402442;28;20057;-73
2024/01/12 08:38:34;;;;;;;39.22;17.80;;;;;;;0.60;100.00;103133.41;10409094;28;20052;-72
2024/01/12 08:43:35;;;;;;;44.97;17.08;;;;;;;0.65;100.00;103127.59;10399614;28;20095;-73
2024/01/12 08:48:35;;;;;;;50.77;18.77;;;;;;;0.70;100.00;103124.47;10416914;28;20037;-72
2024/01/12 08:53:36;;;;;;;53.57;17.97;;;;;;;0.73;100.00;103119.63;10392789;28;20037;-73
2024/01/12 08:58:37;;;;;;;52.00;17.73;;;;;;;0.79;100.00;103110.13;10417859;28;20111;-73
2024/01/12 09:03:38;;;;;;;46.03;17.08;;;;;;;0.69;100.00;103099.22;10384018;28;20037;-73
2024/01/12 09:08:38;;;;;;;47.63;18.23;;;;;;;0.84;100.00;103105.13;10408155;28;20042;-73
2024/01/12 09:13:39;;;;;;;48.55;17.80;;;;;;;0.91;100.00;103106.31;10392105;28;20042;-73
2024/01/12 09:18:42;;;;;;;43.25;15.98;;;;;;;0.65;100.00;103042.69;10396598;28;20033;-74
2024/01/12 09:23:43;;;;;;;48.87;17.27;;;;;;;1.05;100.00;103099.66;10416788;28;20030;-73
2024/01/12 09:28:43;;;;;;;39.23;17.43;;;;;;;1.15;100.00;103097.84;10417181;28;20124;-74
2024/01/12 09:33:44;;;;;;;40.42;16.52;;;;;;;1.25;100.00;103088.88;10415858;28;20050;-73
2024/01/12 09:38:44;;;;;;;34.67;15.87;;;;;;;1.37;100.00;103093.22;10387698;28;20033;-73
2024/01/12 09:43:45;;;;;;;36.00;16.23;;;;;;;1.38;100.00;103093.03;10414131;28;20072;-73
2024/01/12 09:48:46;;;;;;;36.75;15.05;;;;;;;1.42;100.00;103099.91;10398726;28;20038;-73
2024/01/12 09:53:47;;;;;;;30.42;12.93;;;;;;;1.41;100.00;103081.94;10396500;28;20033;-73
2024/01/12 09:58:47;;;;;;;29.33;12.90;;;;;;;1.70;100.00;103108.28;10381916;28;20044;-73
2024/01/12 10:03:48;;;;;;;32.53;10.88;;;;;;;1.80;100.00;103092.84;10415030;28;20037;-73
2024/01/12 10:08:48;;;;;;;28.73;9.15;;;;;;;1.99;100.00;103104.72;10391559;28;20042;-72
2024/01/12 10:13:49;;;;;;;40.55;9.55;;;;;;;2.18;100.00;103110.16;10407871;28;20041;-73
2024/01/12 10:18:50;;;;;;;17.38;7.45;;;;;;;2.28;100.00;103104.72;10395821;28;20045;-73
2024/01/12 10:24:06;;;;;;;27.23;7.88;;;;;;;2.33;100.00;103094.25;10409048;28;20054;-73
2024/01/12 10:29:06;;;;;;;25.58;5.18;;;;;;;2.44;100.00;103095.97;10381432;28;20037;-72
2024/01/12 10:34:14;;;;;;;34.60;6.55;;;;;;;2.61;100.00;103114.25;10413640;28;20034;-73
2024/01/12 10:39:14;;;;;;;26.80;6.00;;;;;;;2.61;100.00;103097.91;10411745;28;20042;-73
2024/01/12 10:44:15;;;;;;;21.60;5.72;;;;;;;2.76;100.00;103098.31;10394822;28;20068;-73
2024/01/12 10:49:20;;;;;;;24.92;5.82;;;;;;;2.81;100.00;103096.00;10377534;28;20107;-73
2024/01/12 10:54:26;;;;;;;37.30;6.35;;;;;;;2.94;100.00;103098.38;10378573;28;20042;-73
2024/01/12 10:59:27;;;;;;;24.80;5.68;;;;;;;2.98;100.00;103088.06;10379659;28;20044;-73
2024/01/12 11:04:28;;;;;;;22.50;4.85;;;;;;;3.01;100.00;103085.03;10396011;28;20060;-73
2024/01/12 11:09:29;;;;;;;22.70;5.35;;;;;;;2.99;100.00;103093.34;10394940;28;20037;-73
2024/01/12 11:14:30;;;;;;;20.23;5.38;;;;;;;3.03;100.00;103081.16;10378611;28;20049;-73
2024/01/12 11:19:32;;;;;;;28.58;6.90;;;;;;;2.89;100.00;103073.47;10390642;28;20037;-73
2024/01/12 11:24:33;;;;;;;26.30;3.67;;;;;;;2.89;100.00;103051.72;10378359;28;20041;-73
2024/01/12 11:29:35;;;;;;;19.98;3.65;;;;;;;2.61;100.00;102983.69;10373802;28;20129;-74
2024/01/12 11:34:37;;;;;;;18.23;4.30;;;;;;;3.08;100.00;103053.50;10389003;28;20441;-74
2024/01/12 11:39:39;;;;;;;15.60;5.28;;;;;;;3.13;100.00;103064.78;10408901;28;20034;-74
2024/01/12 11:44:40;;;;;;;24.70;4.75;;;;;;;3.20;100.00;103075.91;10409210;28;20129;-76
2024/01/12 11:49:40;;;;;;;26.05;5.07;;;;;;;3.24;100.00;103061.00;10378031;28;20053;-76
2024/01/12 11:54:41;;;;;;;17.02;5.53;;;;;;;3.22;100.00;103041.22;10418048;28;20457;-76
2024/01/12 11:59:41;;;;;;;16.90;4.97;;;;;;;3.27;100.00;103044.38;10404056;28;20053;-75
2024/01/12 12:04:42;;;;;;;27.25;5.18;;;;;;;3.27;100.00;103044.38;10384665;28;20092;-77
2024/01/12 12:09:45;;;;;;;17.05;4.03;;;;;;;3.41;100.00;103045.69;10398262;28;20030;-76
2024/01/12 12:15:07;;;;;;;24.92;4.00;;;;;;;3.36;100.00;103029.81;10381447;28;20042;-76
2024/01/12 12:20:11;;;;;;;26.00;4.07;;;;;;;3.42;100.00;103045.56;10392291;28;20041;-76
2024/01/12 12:25:15;;;;;;;25.95;4.68;;;;;;;3.38;100.00;103025.09;10418966;28;20101;-75
2024/01/12 12:30:15;;;;;;;16.38;3.72;;;;;;;3.37;100.00;103028.84;10402114;28;20041;-76
2024/01/12 12:35:22;;;;;;;28.42;5.55;;;;;;;3.28;100.00;103018.84;10400628;28;20498;-76
2024/01/12 12:40:23;;;;;;;22.40;4.70;;;;;;;3.41;100.00;103019.34;10396446;28;20034;-76
2024/01/12 12:45:23;;;;;;;23.80;6.25;;;;;;;3.43;100.00;103025.50;10396770;28;20045;-76
2024/01/12 12:50:25;;;;;;;30.17;5.18;;;;;;;3.41;100.00;103030.25;10384583;28;20049;-76
2024/01/12 12:55:25;;;;;;;20.95;4.45;;;;;;;3.41;100.00;103019.34;10416901;28;20440;-76
2024/01/12 13:00:26;;;;;;;31.75;6.40;;;;;;;3.40;100.00;103004.00;10395764;28;20037;-76
2024/01/12 13:05:27;;;;;;;27.45;5.95;;;;;;;3.32;100.00;102984.00;10413179;28;20026;-76
2024/01/12 13:10:27;;;;;;;19.15;5.55;;;;;;;3.34;100.00;102992.88;10414895;28;20053;-76
2024/01/12 13:15:28;;;;;;;20.40;4.13;;;;;;;3.38;100.00;102984.25;10413729;28;20037;-76
2024/01/12 13:20:29;;;;;;;24.40;5.97;;;;;;;3.39;100.00;102985.97;10410528;28;20053;-76
2024/01/12 13:25:30;;;;;;;21.33;6.68;;;;;;;3.39;100.00;102993.25;10398884;28;20038;-76
2024/01/12 13:30:30;;;;;;;31.27;6.15;;;;;;;3.34;100.00;102988.28;10414237;28;20071;-76
2024/01/12 13:35:32;;;;;;;26.45;6.00;;;;;;;3.34;100.00;102980.13;10401435;28;20056;-76
2024/01/12 13:40:32;;;;;;;22.73;6.53;;;;;;;3.23;100.00;102956.69;10348012;28;20042;-76
2024/01/12 13:45:35;;;;;;;31.60;6.47;;;;;;;3.27;100.00;102957.25;10405385;28;20049;-76
2024/01/12 13:50:36;;;;;;;25.88;7.03;;;;;;;3.31;100.00;102955.94;10379529;28;20045;-76
2024/01/12 13:55:37;;;;;;;17.55;4.30;;;;;;;3.26;100.00;102952.81;10418334;28;20048;-76
2024/01/12 14:00:37;;;;;;;26.10;5.95;;;;;;;3.19;100.00;102954.44;10417218;28;20037;-74
2024/01/12 14:05:38;;;;;;;15.98;4.78;;;;;;;3.25;100.00;102959.28;10418088;28;20037;-75
2024/01/12 14:10:39;;;;;;;24.20;5.38;;;;;;;3.20;100.00;102946.13;10416497;28;20064;-75
2024/01/12 14:15:41;;;;;;;31.45;5.43;;;;;;;3.29;100.00;102949.78;10413173;28;20072;-75
2024/01/12 14:20:42;;;;;;;28.45;5.65;;;;;;;3.26;100.00;102947.38;10414324;28;20037;-75
2024/01/12 14:25:43;;;;;;;26.67;5.60;;;;;;;3.06;100.00;102915.84;10416698;28;20038;-75
2024/01/12 14:30:43;;;;;;;22.38;5.93;;;;;;;3.16;100.00;102941.13;10416302;28;20088;-74
2024/01/12 14:35:44;;;;;;;22.02;5.97;;;;;;;3.10;100.00;102945.34;10407135;28;20037;-74
2024/01/12 14:40:44;;;;;;;27.70;6.57;;;;;;;3.01;100.00;102930.78;10398899;28;20045;-75
2024/01/12 14:45:45;;;;;;;17.73;5.03;;;;;;;3.06;100.00;102929.47;10415548;28;20052;-75
2024/01/12 14:50:45;;;;;;;28.98;4.95;;;;;;;2.96;100.00;102930.41;10414109;28;20038;-75
2024/01/12 14:55:46;;;;;;;32.40;7.53;;;;;;;2.92;100.00;102926.28;10393024;28;20030;-75
2024/01/12 15:00:47;;;;;;;19.13;5.88;;;;;;;2.83;100.00;102925.34;10406244;28;20474;-74
2024/01/12 15:05:48;;;;;;;30.95;6.20;;;;;;;2.48;100.00;102874.44;10403227;28;20046;-75
2024/01/12 15:10:48;;;;;;;21.73;6.38;;;;;;;2.70;100.00;102921.25;10394314;28;20041;-75
2024/01/12 15:15:49;;;;;;;19.77;5.25;;;;;;;2.61;100.00;102906.72;10411323;28;20041;-74
2024/01/12 15:20:53;;;;;;;32.28;6.00;;;;;;;2.76;100.00;102932.38;10395693;28;20041;-74
2024/01/12 15:25:56;;;;;;;20.55;5.85;;;;;;;2.68;100.00;102923.28;10412644;28;20482;-75
2024/01/12 15:30:57;;;;;;;15.40;6.28;;;;;;;2.64;100.00;102922.69;10413643;28;20067;-82
2024/01/12 15:35:58;;;;;;;13.50;5.15;;;;;;;2.66;100.00;102926.13;10405243;28;20041;-81
2024/01/12 15:40:59;;;;;;;15.15;5.65;;;;;;;2.61;100.00;102923.88;10395571;28;20443;-82
2024/01/12 15:45:59;;;;;;;23.08;8.60;;;;;;;2.50;100.00;102899.63;10410926;28;20034;-81
2024/01/12 15:51:00;;;;;;;17.88;5.90;;;;;;;2.61;100.00;102902.13;10414381;28;20076;-81
2024/01/12 15:56:00;;;;;;;19.70;6.72;;;;;;;2.61;100.00;102885.81;10412139;28;20069;-82
2024/01/12 16:01:01;;;;;;;19.92;6.88;;;;;;;2.57;100.00;102889.84;10411941;28;20041;-82
2024/01/12 16:06:07;;;;;;;23.33;8.13;;;;;;;2.60;100.00;102902.25;10426691;28;20417;-82
2024/01/12 16:11:20;;;;;;;27.30;7.32;;;;;;;2.53;100.00;102893.00;10376626;28;20489;-81
2024/01/12 16:16:21;;;;;;;13.90;6.78;;;;;;;2.52;100.00;102891.28;10411290;28;20064;-82
2024/01/12 16:21:32;;;;;;;19.27;6.67;;;;;;;2.42;100.00;102875.91;10413357;28;20034;-82
2024/01/12 16:26:37;;;;;;;18.25;6.40;;;;;;;2.37;100.00;102878.19;10394039;28;20045;-81
2024/01/12 16:31:37;;;;;;;8.25;6.82;;;;;;;2.32;100.00;102885.09;10364461;28;20037;-82
2024/01/12 16:36:38;;;;;;;10.35;6.38;;;;;;;2.16;100.00;102875.72;10412939;28;20087;-80
2024/01/12 16:41:38;;;;;;;16.90;7.18;;;;;;;2.08;100.00;102883.75;10420389;28;20042;-82
2024/01/12 16:46:42;;;;;;;29.08;8.43;;;;;;;2.05;100.00;102875.91;10417816;28;20042;-81
2024/01/12 16:51:42;;;;;;;21.00;8.43;;;;;;;1.73;100.00;102819.28;10405706;28;20044;-82
2024/01/12 16:56:43;;;;;;;23.23;7.43;;;;;;;1.98;100.00;102851.19;10412827;28;20060;-81
2024/01/12 17:01:43;;;;;;;13.20;7.40;;;;;;;2.10;100.00;102870.03;10414574;28;20037;-81
2024/01/12 17:06:44;;;;;;;17.40;6.72;;;;;;;2.16;100.00;102870.28;10434281;28;20037;-80
2024/01/12 17:11:45;;;;;;;18.90;7.22;;;;;;;2.11;100.00;102850.88;10414504;28;20034;-79
2024/01/12 17:16:46;;;;;;;19.38;6.97;;;;;;;2.04;100.00;102848.91;10418265;28;20521;-77
2024/01/12 17:21:46;;;;;;;17.27;7.50;;;;;;;2.03;100.00;102850.75;10418800;28;20053;-75
2024/01/12 17:26:48;;;;;;;16.65;6.65;;;;;;;1.89;100.00;102834.94;10419700;28;22202;-80
2024/01/12 17:31:49;;;;;;;16.38;7.13;;;;;;;2.00;100.00;102842.91;10419133;28;20766;-79
2024/01/12 17:36:51;;;;;;;20.48;7.22;;;;;;;1.90;100.00;102818.50;10416348;28;20400;-79
2024/01/12 17:41:51;;;;;;;17.67;7.50;;;;;;;1.99;100.00;102828.47;10416764;28;20025;-81
2024/01/12 17:46:52;;;;;;;14.45;7.50;;;;;;;2.18;100.00;102846.53;10414284;28;20037;-79
2024/01/12 17:51:52;;;;;;;15.20;9.98;;;;;;;2.15;100.00;102835.97;10414704;28;20064;-79
2024/01/12 17:56:53;;;;;;;13.18;8.52;;;;;;;2.20;100.00;102828.22;10415114;28;20080;-79
2024/01/12 18:01:53;;;;;;;10.35;7.15;;;;;;;2.18;100.00;102834.81;10412024;28;20303;-79
2024/01/12 18:06:53;;;;;;;16.00;7.50;;;;;;;2.02;100.00;102824.59;10410757;28;20033;-78
2024/01/12 18:11:54;;;;;;;12.93;7.32;;;;;;;1.96;100.00;102831.50;10403124;28;20064;-79
2024/01/12 18:16:55;;;;;;;16.33;8.00;;;;;;;1.88;100.00;102833.22;10415540;28;20232;-78
2024/01/12 18:21:55;;;;;;;19.80;8.30;;;;;;;1.80;100.00;102810.38;10408870;28;20045;-74
2024/01/12 18:26:56;;;;;;;15.40;8.43;;;;;;;1.85;100.00;102811.81;10411837;28;20060;-79
2024/01/12 18:31:57;;;;;;;14.18;8.40;;;;;;;1.90;100.00;102832.09;10414624;28;20046;-78
2024/01/12 18:36:57;;;;;;;13.52;7.95;;;;;;;1.81;100.00;102817.53;10411261;28;20042;-79
2024/01/12 18:41:58;;;;;;;18.77;8.52;;;;;;;1.97;100.00;102821.47;10404949;28;20038;-79
2024/01/12 18:46:58;;;;;;;16.90;8.02;;;;;;;1.95;100.00;102807.19;10403530;28;20048;-78
2024/01/12 18:51:59;;;;;;;16.90;7.50;;;;;;;2.04;100.00;102806.28;10389821;28;20034;-78
2024/01/12 18:56:59;;;;;;;22.23;10.30;;;;;;;1.77;100.00;102759.06;10406726;28;20034;-78
2024/01/12 19:02:00;;;;;;;23.03;9.80;;;;;;;2.01;100.00;102810.16;10399509;28;20034;-78
2024/01/12 19:07:01;;;;;;;20.80;9.67;;;;;;;1.94;100.00;102808.19;10407485;28;20041;-76
2024/01/12 19:12:01;;;;;;;19.10;11.97;;;;;;;1.91;100.00;102803.06;10410598;28;20049;-77
2024/01/12 19:17:01;;;;;;;30.37;13.60;;;;;;;1.86;100.00;102817.09;10401218;28;20057;-77
2024/01/12 19:22:02;;;;;;;21.83;12.43;;;;;;;1.81;100.00;102803.94;10410504;28;20038;-78
2024/01/12 19:27:05;;;;;;;39.17;14.00;;;;;;;1.76;100.00;102792.69;10398638;28;20109;-78
2024/01/12 19:32:10;;;;;;;47.72;16.13;;;;;;;1.64;100.00;102783.00;10405934;28;20045;-78
2024/01/12 19:37:10;;;;;;;42.40;17.95;;;;;;;1.61;100.00;102778.75;10406267;28;20037;-78
2024/01/12 19:42:13;;;;;;;41.03;18.55;;;;;;;1.65;100.00;102779.28;10400930;28;20034;-78
2024/01/12 19:47:13;;;;;;;53.60;21.00;;;;;;;1.76;100.00;102799.97;10411269;28;20545;-78
2024/01/12 19:52:13;;;;;;;43.63;19.65;;;;;;;1.36;100.00;102742.22;10409724;28;20042;-78
2024/01/12 19:57:14;;;;;;;55.88;20.77;;;;;;;1.34;100.00;102727.09;10428890;28;20037;-77
2024/01/12 20:02:14;;;;;;;48.97;19.73;;;;;;;1.79;100.00;102786.94;10412179;28;20042;-78
2024/01/12 20:07:15;;;;;;;53.17;20.27;;;;;;;1.75;100.00;102780.09;10413700;28;20045;-78
2024/01/12 20:12:15;;;;;;;57.37;21.37;;;;;;;1.69;100.00;102749.97;10399742;28;20069;-77
2024/01/12 20:17:16;;;;;;;85.23;23.00;;;;;;;1.23;100.00;102671.16;10421456;28;20045;-77
2024/01/12 20:22:16;;;;;;;63.85;21.85;;;;;;;1.83;100.00;102767.66;10411879;28;20045;-76
2024/01/12 20:27:17;;;;;;;48.13;19.63;;;;;;;1.87;100.00;102755.47;10420343;28;20116;-78
2024/01/12 20:32:17;;;;;;;36.75;16.27;;;;;;;1.74;100.00;102724.09;10412575;28;20041;-78
2024/01/12 20:37:18;;;;;;;38.97;17.60;;;;;;;1.81;100.00;102736.03;10403268;28;20033;-77
2024/01/12 20:42:18;;;;;;;35.50;17.53;;;;;;;1.93;100.00;102747.56;10413529;28;20042;-78
2024/01/12 20:47:23;;;;;;;42.85;17.20;;;;;;;1.96;100.00;102749.13;10423313;28;20068;-78
2024/01/12 20:52:23;;;;;;;37.30;15.93;;;;;;;1.98;100.00;102739.81;10411913;28;20060;-78
2024/01/12 20:57:24;;;;;;;35.63;17.00;;;;;;;1.94;100.00;102738.44;10406252;28;20040;-78
2024/01/12 21:02:24;;;;;;;41.60;17.20;;;;;;;2.00;100.00;102745.09;10400261;28;20710;-78
2024/01/12 21:07:25;;;;;;;33.37;14.93;;;;;;;1.99;100.00;102733.38;10406750;28;20069;-77
2024/01/12 21:12:25;;;;;;;34.70;15.82;;;;;;;2.01;100.00;102734.09;10392821;28;20046;-78
2024/01/12 21:17:26;;;;;;;30.48;15.05;;;;;;;1.97;100.00;102729.97;10409098;28;20045;-79
2024/01/12 21:22:26;;;;;;;24.52;14.65;;;;;;;1.88;100.00;102713.72;10412667;28;20037;-79
2024/01/12 21:27:27;;;;;;;26.60;15.55;;;;;;;1.96;100.00;102727.38;10416387;28;20037;-78
2024/01/12 21:32:28;;;;;;;22.88;14.18;;;;;;;1.96;100.00;102724.69;10416839;28;20052;-76
2024/01/12 21:37:29;;;;;;;25.60;15.20;;;;;;;1.94;100.00;102724.84;10413930;28;22669;-78
2024/01/12 21:42:30;;;;;;;30.88;14.55;;;;;;;1.79;100.00;102719.03;10410826;28;20045;-79
2024/01/12 21:47:30;;;;;;;20.70;14.07;;;;;;;1.88;100.00;102720.03;10416716;28;20538;-79
2024/01/12 21:52:31;;;;;;;24.45;14.35;;;;;;;1.87;100.00;102709.31;10431387;28;20064;-78
2024/01/12 21:57:31;;;;;;;19.75;14.07;;;;;;;1.83;100.00;102711.47;10390231;28;20100;-79
2024/01/12 22:02:32;;;;;;;17.30;11.85;;;;;;;1.81;100.00;102708.88;10415488;28;20520;-76
2024/01/12 22:07:32;;;;;;;21.75;12.43;;;;;;;1.72;100.00;102692.66;10431659;28;20464;-78
2024/01/12 22:12:33;;;;;;;19.35;12.05;;;;;;;1.61;100.00;102691.88;10395138;28;20042;-77
2024/01/12 22:17:34;;;;;;;24.15;11.88;;;;;;;1.55;100.00;102683.44;10417160;28;20045;-79
2024/01/12 22:22:34;;;;;;;26.15;12.02;;;;;;;1.41;100.00;102685.66;10416951;28;20124;-79
2024/01/12 22:27:37;;;;;;;18.77;12.93;;;;;;;1.29;100.00;102686.84;10416923;28;20053;-78
2024/01/12 22:32:38;;;;;;;26.98;13.50;;;;;;;1.40;100.00;102672.22;10413597;28;20105;-78
2024/01/12 22:37:39;;;;;;;25.92;13.38;;;;;;;1.06;100.00;102601.41;10412753;28;20041;-78